createdAt,value
2024-02-28T00:01:29.832Z,97.71
2024-02-28T00:06:32.868Z,97.53
2024-02-28T00:11:37.850Z,93.36
2024-02-28T00:16:43.864Z,91.52
2024-02-28T00:21:46.934Z,92.15
2024-02-28T00:26:49.935Z,94.20
2024-02-28T00:31:54.345Z,96.30
2024-02-28T00:36:57.447Z,98.22
2024-02-28T00:42:00.352Z,99.21
2024-02-28T00:47:04.720Z,100.00
2024-02-28T00:52:08.082Z,98.50
2024-02-28T00:57:11.101Z,95.86
2024-02-28T01:02:15.435Z,97.17
2024-02-28T01:07:18.343Z,94.62
2024-02-28T01:12:21.521Z,86.93
2024-02-28T01:17:28.204Z,90.16
2024-02-28T01:22:31.257Z,92.45
2024-02-28T01:27:34.463Z,99.16
2024-02-28T01:32:39.388Z,97.22
2024-02-28T01:37:42.329Z,99.44
2024-02-28T01:42:45.400Z,100.00
2024-02-28T01:47:50.135Z,100.00
2024-02-28T01:52:55.698Z,100.00
2024-02-28T01:57:58.770Z,98.17
2024-02-28T02:03:06.403Z,93.20
2024-02-28T02:08:11.948Z,99.67
2024-02-28T02:13:14.917Z,100.00
2024-02-28T02:18:19.378Z,98.64
2024-02-28T02:23:23.807Z,98.07
2024-02-28T02:28:26.748Z,100.00
2024-02-28T02:33:29.591Z,99.11
2024-02-28T02:38:36.376Z,95.89
2024-02-28T02:43:39.331Z,99.04
2024-02-28T02:48:42.352Z,96.43
2024-02-28T02:53:46.674Z,97.52
2024-02-28T02:58:49.776Z,98.65
2024-02-28T03:03:53.857Z,99.22
2024-02-28T03:08:58.246Z,99.66
2024-02-28T03:14:01.135Z,96.19
2024-02-28T03:19:04.952Z,95.54
2024-02-28T03:24:09.533Z,92.38
2024-02-28T03:29:14.585Z,88.29
2024-02-28T03:34:17.495Z,89.55
2024-02-28T03:39:24.453Z,87.78
2024-02-28T03:44:27.390Z,89.22
2024-02-28T03:49:30.299Z,90.17
2024-02-28T03:54:34.769Z,88.45
2024-02-28T03:59:39.807Z,84.69
2024-02-28T04:04:45.528Z,86.62
2024-02-28T04:09:50.133Z,91.10
2024-02-28T04:14:55.257Z,90.61
2024-02-28T04:19:59.097Z,92.93
2024-02-28T04:25:03.730Z,87.51
2024-02-28T04:30:07.967Z,90.33
2024-02-28T04:35:10.974Z,92.29
2024-02-28T04:40:16.596Z,89.12
2024-02-28T04:45:19.768Z,86.41
2024-02-28T04:50:22.746Z,91.67
2024-02-28T04:55:27.049Z,93.67
2024-02-28T05:00:29.998Z,94.69
2024-02-28T05:05:32.927Z,99.54
2024-02-28T05:10:37.193Z,100.00
2024-02-28T05:15:40.346Z,100.00
2024-02-28T05:20:43.224Z,100.00
2024-02-28T05:25:49.093Z,100.00
2024-02-28T05:30:52.198Z,100.00
2024-02-28T05:35:55.292Z,100.00
2024-02-28T05:41:00.732Z,100.00
2024-02-28T05:46:03.818Z,100.00
2024-02-28T05:51:07.205Z,100.00
2024-02-28T05:56:15.650Z,100.00
2024-02-28T06:01:19.867Z,100.00
2024-02-28T06:06:23.639Z,100.00
2024-02-28T06:11:27.947Z,100.00
2024-02-28T06:16:30.857Z,100.00
2024-02-28T06:21:33.819Z,100.00
2024-02-28T06:26:40.957Z,100.00
2024-02-28T06:31:45.361Z,100.00
2024-02-28T06:36:48.380Z,100.00
2024-02-28T06:41:58.865Z,100.00
2024-02-28T06:47:03.052Z,100.00
2024-02-28T06:52:06.851Z,100.00
2024-02-28T06:57:12.518Z,100.00
2024-02-28T07:02:15.496Z,100.00
2024-02-28T07:07:18.388Z,100.00
2024-02-28T07:12:22.832Z,100.00
2024-02-28T07:17:27.711Z,100.00
2024-02-28T07:22:31.775Z,100.00
2024-02-28T07:27:36.016Z,100.00
2024-02-28T07:32:38.959Z,100.00
2024-02-28T07:37:41.869Z,100.00
2024-02-28T07:42:46.362Z,100.00
2024-02-28T07:47:50.658Z,100.00
2024-02-28T07:52:56.103Z,100.00
2024-02-28T07:58:00.625Z,94.85
2024-02-28T08:03:03.572Z,89.58
2024-02-28T08:08:07.077Z,89.40
2024-02-28T08:13:12.626Z,89.92
2024-02-28T08:18:16.296Z,90.92
2024-02-28T08:23:20.423Z,87.88
2024-02-28T08:28:24.787Z,80.30
2024-02-28T08:33:28.042Z,77.64
2024-02-28T08:38:31.313Z,79.34
2024-02-28T08:43:35.881Z,77.84
2024-02-28T08:48:39.229Z,76.65
2024-02-28T08:53:42.275Z,75.35
2024-02-28T08:58:46.974Z,81.03
2024-02-28T09:03:49.924Z,80.26
2024-02-28T09:08:52.903Z,77.63
2024-02-28T09:13:57.133Z,64.47
2024-02-28T09:19:00.060Z,67.52
2024-02-28T09:24:03.231Z,69.46
2024-02-28T09:29:07.462Z,72.75
2024-02-28T09:34:11.226Z,78.55
2024-02-28T09:39:15.984Z,74.51
2024-02-28T09:44:22.343Z,71.89
2024-02-28T09:49:28.870Z,73.69
2024-02-28T09:54:31.953Z,65.10
2024-02-28T09:59:47.037Z,68.35
2024-02-28T10:04:58.655Z,69.03
2024-02-28T10:10:01.705Z,70.35
2024-02-28T10:15:07.285Z,70.74
2024-02-28T10:20:11.468Z,72.28
2024-02-28T10:25:14.404Z,75.40
2024-02-28T10:30:18.985Z,76.13
2024-02-28T10:35:26.289Z,76.97
2024-02-28T10:40:30.238Z,71.22
2024-02-28T10:50:46.664Z,68.12
2024-02-28T10:55:50.872Z,66.83
2024-02-28T11:00:55.485Z,69.30
2024-02-28T11:05:58.565Z,62.69
2024-02-28T11:11:05.329Z,69.27
2024-02-28T11:16:14.065Z,63.95
2024-02-28T11:21:17.678Z,64.67
2024-02-28T11:26:21.677Z,65.40
2024-02-28T11:31:25.993Z,67.55
2024-02-28T11:36:29.613Z,63.43
2024-02-28T11:41:33.032Z,70.52
2024-02-28T11:46:37.586Z,70.61
2024-02-28T11:51:43.097Z,70.80
2024-02-28T11:56:46.871Z,75.48
2024-02-28T12:01:52.796Z,80.06
2024-02-28T12:06:56.018Z,77.67
2024-02-28T12:12:02.634Z,81.65
2024-02-28T12:17:07.060Z,83.18
2024-02-28T12:22:10.125Z,79.06
2024-02-28T12:27:13.163Z,77.32
2024-02-28T12:32:19.015Z,78.49
2024-02-28T12:37:21.981Z,81.05
2024-02-28T12:42:24.919Z,78.51
2024-02-28T12:47:31.718Z,83.25
2024-02-28T12:52:34.708Z,85.20
2024-02-28T12:57:40.400Z,81.56
2024-02-28T13:02:45.021Z,83.01
2024-02-28T13:07:47.867Z,79.99
2024-02-28T13:12:54.388Z,76.59
2024-02-28T13:18:09.748Z,75.28
2024-02-28T13:23:27.548Z,84.06
2024-02-28T13:28:36.585Z,84.80
2024-02-28T13:33:42.801Z,86.66
2024-02-28T13:38:46.068Z,86.42
2024-02-28T13:44:53.766Z,88.56
2024-02-28T13:50:17.187Z,92.31
2024-02-28T13:55:20.960Z,93.32
2024-02-28T14:00:24.970Z,100.00
2024-02-28T14:05:29.535Z,100.00
2024-02-28T14:10:32.727Z,100.00
2024-02-28T14:15:37.601Z,100.00
2024-02-28T14:20:43.517Z,100.00
2024-02-28T14:25:46.834Z,98.17
2024-02-28T14:30:50.937Z,97.89
2024-02-28T14:35:55.556Z,100.00
2024-02-28T14:40:58.568Z,100.00
2024-02-28T14:46:03.001Z,100.00
2024-02-28T14:51:07.796Z,98.62
2024-02-28T14:56:10.933Z,100.00
2024-02-28T15:01:14.114Z,96.80
2024-02-28T15:06:19.209Z,91.52
2024-02-28T15:11:22.396Z,90.90
2024-02-28T15:16:25.804Z,89.87
2024-02-28T15:21:30.207Z,95.22
2024-02-28T15:26:42.219Z,94.70
2024-02-28T15:31:49.292Z,91.80
2024-02-28T15:36:53.555Z,95.44
2024-02-28T15:41:56.588Z,100.00
2024-02-28T15:46:59.455Z,99.52
2024-02-28T15:52:04.412Z,100.00
2024-02-28T15:57:10.875Z,100.00
2024-02-28T16:02:13.821Z,100.00
2024-02-28T16:07:18.276Z,100.00
2024-02-28T16:12:21.677Z,100.00
2024-02-28T16:17:26.912Z,100.00
2024-02-28T16:22:31.552Z,100.00
2024-02-28T16:27:35.879Z,100.00
2024-02-28T16:32:39.521Z,100.00
2024-02-28T16:37:46.749Z,100.00
2024-02-28T16:42:52.605Z,100.00
2024-02-28T16:47:55.576Z,100.00
2024-02-28T16:52:59.962Z,100.00
2024-02-28T16:58:05.003Z,100.00
2024-02-28T17:03:08.161Z,100.00
2024-02-28T17:08:12.540Z,100.00
2024-02-28T17:13:15.574Z,100.00
2024-02-28T17:18:18.590Z,100.00
2024-02-28T17:23:25.379Z,100.00
2024-02-28T17:28:28.950Z,100.00
2024-02-28T17:33:32.029Z,100.00
2024-02-28T17:38:36.995Z,100.00
2024-02-28T17:43:39.996Z,100.00
2024-02-28T17:48:44.633Z,100.00
2024-02-28T17:53:48.968Z,100.00
2024-02-28T17:58:51.848Z,100.00
2024-02-28T18:03:54.760Z,100.00
2024-02-28T18:08:59.477Z,100.00
2024-02-28T18:14:02.371Z,100.00
2024-02-28T18:19:05.778Z,100.00
2024-02-28T18:24:10.331Z,100.00
2024-02-28T18:29:13.425Z,100.00
2024-02-28T18:34:16.595Z,100.00
2024-02-28T18:39:20.943Z,100.00
2024-02-28T18:44:23.958Z,100.00
2024-02-28T18:49:27.211Z,100.00
2024-02-28T18:54:31.842Z,100.00
2024-02-28T18:59:36.031Z,100.00
2024-02-28T19:04:40.212Z,100.00
2024-02-28T19:09:44.946Z,100.00
2024-02-28T19:14:48.247Z,100.00
2024-02-28T19:20:08.275Z,100.00
2024-02-28T19:25:12.747Z,100.00
2024-02-28T19:30:15.827Z,100.00
2024-02-28T19:35:18.763Z,100.00
2024-02-28T19:40:23.082Z,100.00
2024-02-28T19:45:26.135Z,100.00
2024-02-28T19:50:29.165Z,100.00
2024-02-28T19:55:33.447Z,100.00
2024-02-28T20:00:37.036Z,100.00
2024-02-28T20:05:40.977Z,100.00
2024-02-28T20:10:45.678Z,100.00
2024-02-28T20:15:48.669Z,100.00
2024-02-28T20:20:51.853Z,100.00
2024-02-28T20:25:56.380Z,100.00
2024-02-28T20:30:59.410Z,100.00
2024-02-28T20:36:04.737Z,100.00
2024-02-28T20:41:09.056Z,100.00
2024-02-28T20:46:12.015Z,100.00
2024-02-28T20:51:15.017Z,100.00
2024-02-28T20:56:19.948Z,100.00
2024-02-28T21:01:25.327Z,100.00
2024-02-28T21:06:30.314Z,100.00
2024-02-28T21:11:37.356Z,100.00
2024-02-28T21:16:40.327Z,100.00
2024-02-28T21:21:43.502Z,100.00
2024-02-28T21:26:49.556Z,100.00
2024-02-28T21:31:52.562Z,100.00
2024-02-28T21:36:55.580Z,100.00
2024-02-28T21:42:00.094Z,100.00
2024-02-28T21:47:03.268Z,100.00
2024-02-28T21:52:06.322Z,100.00
2024-02-28T21:57:12.130Z,100.00
2024-02-28T22:02:15.091Z,100.00
2024-02-28T22:07:18.062Z,100.00
2024-02-28T22:12:22.387Z,100.00
2024-02-28T22:17:25.268Z,100.00
2024-02-28T22:22:29.957Z,100.00
2024-02-28T22:27:34.248Z,100.00
2024-02-28T22:32:37.166Z,100.00
2024-02-28T22:37:40.079Z,100.00
2024-02-28T22:42:44.684Z,100.00
2024-02-28T22:47:47.598Z,100.00
2024-02-28T22:52:50.510Z,100.00
2024-02-28T22:57:54.897Z,100.00
2024-02-28T23:03:00.042Z,100.00
2024-02-28T23:08:03.721Z,100.00
2024-02-28T23:13:08.538Z,100.00
2024-02-28T23:18:11.992Z,100.00
2024-02-28T23:23:14.991Z,100.00
2024-02-28T23:28:19.209Z,100.00
2024-02-28T23:33:22.343Z,100.00
2024-02-28T23:38:25.187Z,100.00
2024-02-28T23:43:29.406Z,100.00
2024-02-28T23:48:32.308Z,100.00
2024-02-28T23:53:35.235Z,100.00
2024-02-28T23:58:39.548Z,100.00
